Tasman — ZDKI2 — position and weather

sailwx.info

Track history (hours):
 
Tides and Currents Weather Stations Pressure Air Temp Water Temp Dewpoint Dewpoint Depression Visibility Wind Speed Wind Dir Waves Ship Positions

Tasman

Last reported at 2017-Apr-30 06:27 UTC. Time now 2017-Apr-30 20:51 UTC.
Position N 40°44' E 029°26'.

Length 90 m; draft 4 m.

Type: Ship. MMSI: 23617000.

Date/timePositionNaut miles runAvg speedWind from/ knotsBaromVisibWave heightAir tempDewpointWater temp
2017-Apr-30 06:27N 40°44' E 029°26'510.5
2017-Apr-30 06:00N 40°43' E 029°19'612.1
2017-Apr-30 05:29N 40°43' E 029°11'612.2
2017-Apr-30 05:00N 40°42' E 029°03'611.6
2017-Apr-30 04:30N 40°42' E 028°56'611.6
2017-Apr-30 03:59N 40°42' E 028°48'14010.8
2017-Apr-29 15:00N 39°53' E 025°56'13512.3
2017-Apr-29 04:00N 37°54' E 024°33'611.9
2017-Apr-29 03:30N 37°50' E 024°28'612.0
2017-Apr-29 03:00N 37°45' E 024°22'612.5
2017-Apr-29 02:30N 37°41' E 024°17'912.4
2017-Apr-29 01:48N 37°34' E 024°10'412.4
2017-Apr-29 01:30N 37°31' E 024°07'612.3
2017-Apr-29 00:59N 37°26' E 024°03'612.1
2017-Apr-29 00:30N 37°21' E 023°59'811.8
2017-Apr-28 23:51N 37°14' E 023°54'411.9
2017-Apr-28 23:30N 37°11' E 023°51'612.1
2017-Apr-28 23:01N 37°06' E 023°47'612.2
2017-Apr-28 22:31N 37°01' E 023°43'612.3
2017-Apr-28 22:00N 36°56' E 023°39'612.2
2017-Apr-28 21:31N 36°50' E 023°34'612.3
2017-Apr-28 21:00N 36°45' E 023°30'612.2
2017-Apr-28 20:30N 36°40' E 023°26'612.0
2017-Apr-28 20:00N 36°35' E 023°22'611.8
2017-Apr-28 19:31N 36°30' E 023°18'23211.9
2017-Apr-28 00:01N 37°16' E 018°33'111.8
2017-Apr-27 23:54N 37°16' E 018°32'811.8
2017-Apr-27 23:15N 37°18' E 018°23'711.7
2017-Apr-27 22:42N 37°20' E 018°15'1511.8
2017-Apr-27 21:26N 37°25' E 017°57'511.9
2017-Apr-27 21:00N 37°27' E 017°51'611.9
2017-Apr-27 20:30N 37°29' E 017°44'612.1
2017-Apr-27 20:00N 37°30' E 017°37'612.3
2017-Apr-27 19:30N 37°32' E 017°29'612.4
2017-Apr-27 19:00N 37°34' E 017°22'612.4
2017-Apr-27 18:29N 37°35' E 017°14'612.2
2017-Apr-27 18:00N 37°37' E 017°07'612.2
2017-Apr-27 17:31N 37°38' E 016°59'612.2
2017-Apr-27 17:00N 37°40' E 016°52'3712.2
2017-Apr-27 13:57N 37°50' E 016°06'1512.1
2017-Apr-27 12:42N 37°54' E 015°48'411.9
2017-Apr-27 12:21N 37°55' E 015°43'411.4
2017-Apr-27 12:00N 37°57' E 015°39'611.5
2017-Apr-27 11:31N 38°03' E 015°36'612.0
2017-Apr-27 11:01N 38°09' E 015°35'612.8
2017-Apr-27 10:30N 38°15' E 015°37'5 9.5
2017-Apr-27 10:01N 38°19' E 015°39'510.4
2017-Apr-27 09:31N 38°24' E 015°35'510.6
2017-Apr-27 09:00N 38°28' E 015°32'611.2
2017-Apr-27 08:30N 38°33' E 015°28'611.6
2017-Apr-27 08:00N 38°38' E 015°24'611.7
2017-Apr-27 07:30N 38°43' E 015°21'611.4
2017-Apr-27 06:57N 38°49' E 015°17'511.4
2017-Apr-27 06:29N 38°53' E 015°14'  
2017-Apr-24 00:18N 39°58' E 002°57'412.4
2017-Apr-24 00:00N 39°57' E 002°52'612.3
2017-Apr-23 23:30N 39°55' E 002°45'611.9
2017-Apr-23 23:00N 39°53' E 002°37'611.7
2017-Apr-23 22:30N 39°50' E 002°30'612.1
2017-Apr-23 22:00N 39°48' E 002°23'612.5
2017-Apr-23 21:30N 39°46' E 002°15'612.7
2017-Apr-23 21:00N 39°43' E 002°08'612.3
2017-Apr-23 20:30N 39°41' E 002°00'1512.3
2017-Apr-23 19:17N 39°36' E 001°42'412.4
2017-Apr-23 18:59N 39°34' E 001°38'3912.0
2017-Apr-23 15:46N 39°19' E 000°52'  
2017-Apr-21 08:16N 37°40' W 000°25'3 9.8
2017-Apr-21 08:00N 37°38' W 000°27'6 9.3
2017-Apr-21 07:21N 37°33' W 000°32'13 9.2
2017-Apr-21 05:57N 37°25' W 000°44'4 9.0
2017-Apr-21 05:30N 37°22' W 000°48'  
Track history (hours):
 
Tides and Currents Weather Stations Pressure Air Temp Water Temp Dewpoint Dewpoint Depression Visibility Wind Speed Wind Dir Waves Ship Positions

Tasman

Last reported at 2017-Apr-30 06:27 UTC. Time now 2017-Apr-30 20:51 UTC.
Position N 40°44' E 029°26'.

Length 90 m; draft 4 m.

Type: Ship. MMSI: 23617000.

Date/timePositionNaut miles runAvg speedWind from/ knotsBaromVisibWave heightAir tempDewpointWater temp
2017-Apr-30 06:27N 40°44' E 029°26'510.5
2017-Apr-30 06:00N 40°43' E 029°19'612.1
2017-Apr-30 05:29N 40°43' E 029°11'612.2
2017-Apr-30 05:00N 40°42' E 029°03'611.6
2017-Apr-30 04:30N 40°42' E 028°56'611.6
2017-Apr-30 03:59N 40°42' E 028°48'14010.8
2017-Apr-29 15:00N 39°53' E 025°56'13512.3
2017-Apr-29 04:00N 37°54' E 024°33'611.9
2017-Apr-29 03:30N 37°50' E 024°28'612.0
2017-Apr-29 03:00N 37°45' E 024°22'612.5
2017-Apr-29 02:30N 37°41' E 024°17'912.4
2017-Apr-29 01:48N 37°34' E 024°10'412.4
2017-Apr-29 01:30N 37°31' E 024°07'612.3
2017-Apr-29 00:59N 37°26' E 024°03'612.1
2017-Apr-29 00:30N 37°21' E 023°59'811.8
2017-Apr-28 23:51N 37°14' E 023°54'411.9
2017-Apr-28 23:30N 37°11' E 023°51'612.1
2017-Apr-28 23:01N 37°06' E 023°47'612.2
2017-Apr-28 22:31N 37°01' E 023°43'612.3
2017-Apr-28 22:00N 36°56' E 023°39'612.2
2017-Apr-28 21:31N 36°50' E 023°34'612.3
2017-Apr-28 21:00N 36°45' E 023°30'612.2
2017-Apr-28 20:30N 36°40' E 023°26'612.0
2017-Apr-28 20:00N 36°35' E 023°22'611.8
2017-Apr-28 19:31N 36°30' E 023°18'23211.9
2017-Apr-28 00:01N 37°16' E 018°33'111.8
2017-Apr-27 23:54N 37°16' E 018°32'811.8
2017-Apr-27 23:15N 37°18' E 018°23'711.7
2017-Apr-27 22:42N 37°20' E 018°15'1511.8
2017-Apr-27 21:26N 37°25' E 017°57'511.9
2017-Apr-27 21:00N 37°27' E 017°51'611.9
2017-Apr-27 20:30N 37°29' E 017°44'612.1
2017-Apr-27 20:00N 37°30' E 017°37'612.3
2017-Apr-27 19:30N 37°32' E 017°29'612.4
2017-Apr-27 19:00N 37°34' E 017°22'612.4
2017-Apr-27 18:29N 37°35' E 017°14'612.2
2017-Apr-27 18:00N 37°37' E 017°07'612.2
2017-Apr-27 17:31N 37°38' E 016°59'612.2
2017-Apr-27 17:00N 37°40' E 016°52'3712.2
2017-Apr-27 13:57N 37°50' E 016°06'1512.1
2017-Apr-27 12:42N 37°54' E 015°48'411.9
2017-Apr-27 12:21N 37°55' E 015°43'411.4
2017-Apr-27 12:00N 37°57' E 015°39'611.5
2017-Apr-27 11:31N 38°03' E 015°36'612.0
2017-Apr-27 11:01N 38°09' E 015°35'612.8
2017-Apr-27 10:30N 38°15' E 015°37'5 9.5
2017-Apr-27 10:01N 38°19' E 015°39'510.4
2017-Apr-27 09:31N 38°24' E 015°35'510.6
2017-Apr-27 09:00N 38°28' E 015°32'611.2
2017-Apr-27 08:30N 38°33' E 015°28'611.6
2017-Apr-27 08:00N 38°38' E 015°24'611.7
2017-Apr-27 07:30N 38°43' E 015°21'611.4
2017-Apr-27 06:57N 38°49' E 015°17'511.4
2017-Apr-27 06:29N 38°53' E 015°14'  
2017-Apr-24 00:18N 39°58' E 002°57'412.4
2017-Apr-24 00:00N 39°57' E 002°52'612.3
2017-Apr-23 23:30N 39°55' E 002°45'611.9
2017-Apr-23 23:00N 39°53' E 002°37'611.7
2017-Apr-23 22:30N 39°50' E 002°30'612.1
2017-Apr-23 22:00N 39°48' E 002°23'612.5
2017-Apr-23 21:30N 39°46' E 002°15'612.7
2017-Apr-23 21:00N 39°43' E 002°08'612.3
2017-Apr-23 20:30N 39°41' E 002°00'1512.3
2017-Apr-23 19:17N 39°36' E 001°42'412.4
2017-Apr-23 18:59N 39°34' E 001°38'3912.0
2017-Apr-23 15:46N 39°19' E 000°52'  
2017-Apr-21 08:16N 37°40' W 000°25'3 9.8
2017-Apr-21 08:00N 37°38' W 000°27'6 9.3
2017-Apr-21 07:21N 37°33' W 000°32'13 9.2
2017-Apr-21 05:57N 37°25' W 000°44'4 9.0
2017-Apr-21 05:30N 37°22' W 000°48'  

Dump ship's entire track history